Time;durP1;ratioP1;P1;durP2;ratioP2;P2;SDS_P1;SDS_P2;PMS_P1;PMS_P2;Temp;Humidity;BMP_temperature;BMP_pressure;BME280_temperature;BME280_humidity;BME280_pressure;Samples;Min_cycle;Max_cycle;Signal;HPM_P1;HPM_P2
2020/12/29 00:00:29;;;;;;;6.25;4.55;;;;;;;-0.46;86.16504;92077.91;;;;
2020/12/29 00:01:29;;;;;;;5.600001;3.55;;;;;;;-0.33;86.27246;92090.37;;;;
2020/12/29 00:02:32;;;;;;;5.600001;3.55;;;;;;;-0.33;86.27246;92090.37;;;;
2020/12/29 00:03:33;;;;;;;5.600001;3.55;;;;;;;-0.33;86.27246;92090.37;;;;
2020/12/29 00:04:33;;;;;;;5.600001;3.55;;;;;;;-0.33;86.27246;92090.37;;;;
2020/12/29 00:05:34;;;;;;;5.600001;3.55;;;;;;;-0.33;86.27246;92090.37;;;;
2020/12/29 00:06:36;;;;;;;5.600001;3.55;;;;;;;-0.33;86.27246;92090.37;;;;
2020/12/29 00:07:53;;;;;;;5.600001;3.55;;;;;;;-0.33;86.27246;92090.37;;;;
2020/12/29 00:08:53;;;;;;;5.600001;3.55;;;;;;;-0.33;86.27246;92090.37;;;;
2020/12/29 00:09:54;;;;;;;5.600001;3.55;;;;;;;-0.33;86.27246;92090.37;;;;
2020/12/29 00:10:54;;;;;;;5.600001;3.55;;;;;;;-0.33;86.27246;92090.37;;;;
2020/12/29 00:11:57;;;;;;;3.3;2.6;;;;;;;-0.29;86.05371;92103.82;;;;
2020/12/29 00:12:59;;;;;;;3.3;2.6;;;;;;;-0.29;86.05371;92103.82;;;;
2020/12/29 00:14:00;;;;;;;3.3;2.6;;;;;;;-0.29;86.05371;92103.82;;;;
2020/12/29 00:15:00;;;;;;;3.3;2.6;;;;;;;-0.29;86.05371;92103.82;;;;
2020/12/29 00:16:01;;;;;;;3.3;2.6;;;;;;;-0.29;86.05371;92103.82;;;;
2020/12/29 00:17:02;;;;;;;3.3;2.6;;;;;;;-0.29;86.05371;92103.82;;;;
2020/12/29 00:18:02;;;;;;;3.3;2.6;;;;;;;-0.29;86.05371;92103.82;;;;
2020/12/29 00:19:03;;;;;;;3.3;2.6;;;;;;;-0.29;86.05371;92103.82;;;;
2020/12/29 00:20:04;;;;;;;3.3;2.6;;;;;;;-0.29;86.05371;92103.82;;;;
2020/12/29 00:21:06;;;;;;;3.3;2.6;;;;;;;-0.29;86.05371;92103.82;;;;
2020/12/29 00:22:06;;;;;;;2.8;2.3;;;;;;;-0.23;86.2207;92111.16;;;;
2020/12/29 00:23:06;;;;;;;2.8;2.3;;;;;;;-0.23;86.2207;92111.16;;;;
2020/12/29 00:24:07;;;;;;;2.8;2.3;;;;;;;-0.23;86.2207;92111.16;;;;
2020/12/29 00:25:08;;;;;;;2.8;2.3;;;;;;;-0.23;86.2207;92111.16;;;;
2020/12/29 00:26:09;;;;;;;2.8;2.3;;;;;;;-0.23;86.2207;92111.16;;;;
2020/12/29 00:27:09;;;;;;;2.8;2.3;;;;;;;-0.23;86.2207;92111.16;;;;
2020/12/29 00:28:10;;;;;;;2.8;2.3;;;;;;;-0.23;86.2207;92111.16;;;;
2020/12/29 00:29:10;;;;;;;2.8;2.3;;;;;;;-0.23;86.2207;92111.16;;;;
2020/12/29 00:30:11;;;;;;;2.8;2.3;;;;;;;-0.23;86.2207;92111.16;;;;
2020/12/29 00:31:11;;;;;;;2.8;2.3;;;;;;;-0.23;86.2207;92111.16;;;;
2020/12/29 00:32:19;;;;;;;2.8;2.3;;;;;;;-0.23;86.2207;92111.16;;;;
2020/12/29 00:33:20;;;;;;;2.75;1.7;;;;;;;-0.15;85.94824;92129.71;;;;
2020/12/29 00:34:20;;;;;;;2.75;1.7;;;;;;;-0.15;85.94824;92129.71;;;;
2020/12/29 00:35:21;;;;;;;2.75;1.7;;;;;;;-0.15;85.94824;92129.71;;;;
2020/12/29 00:36:21;;;;;;;2.75;1.7;;;;;;;-0.15;85.94824;92129.71;;;;
2020/12/29 00:37:23;;;;;;;2.75;1.7;;;;;;;-0.15;85.94824;92129.71;;;;
2020/12/29 00:38:23;;;;;;;2.75;1.7;;;;;;;-0.15;85.94824;92129.71;;;;
2020/12/29 00:39:25;;;;;;;2.75;1.7;;;;;;;-0.15;85.94824;92129.71;;;;
2020/12/29 00:40:25;;;;;;;2.75;1.7;;;;;;;-0.15;85.94824;92129.71;;;;
2020/12/29 00:41:25;;;;;;;2.75;1.7;;;;;;;-0.15;85.94824;92129.71;;;;
2020/12/29 00:42:26;;;;;;;2.75;1.7;;;;;;;-0.15;85.94824;92129.71;;;;
2020/12/29 00:43:26;;;;;;;2.85;1.8;;;;;;;-0.08;86.0957;92148.05;;;;
2020/12/29 00:44:27;;;;;;;2.85;1.8;;;;;;;-0.08;86.0957;92148.05;;;;
2020/12/29 00:45:27;;;;;;;2.85;1.8;;;;;;;-0.08;86.0957;92148.05;;;;
2020/12/29 00:46:28;;;;;;;2.85;1.8;;;;;;;-0.08;86.0957;92148.05;;;;
2020/12/29 00:47:28;;;;;;;2.85;1.8;;;;;;;-0.08;86.0957;92148.05;;;;
2020/12/29 00:48:29;;;;;;;2.85;1.8;;;;;;;-0.08;86.0957;92148.05;;;;
2020/12/29 00:49:29;;;;;;;2.85;1.8;;;;;;;-0.08;86.0957;92148.05;;;;
2020/12/29 00:50:30;;;;;;;2.85;1.8;;;;;;;-0.08;86.0957;92148.05;;;;
2020/12/29 00:51:30;;;;;;;2.85;1.8;;;;;;;-0.08;86.0957;92148.05;;;;
2020/12/29 00:52:31;;;;;;;2.85;1.8;;;;;;;-0.08;86.0957;92148.05;;;;
2020/12/29 00:53:31;;;;;;;2.85;1.8;;;;;;;-0.08;86.0957;92148.05;;;;
2020/12/29 00:54:32;;;;;;;1.75;1.4;;;;;;;-0.01;86.12109;92154.77;;;;
2020/12/29 00:55:32;;;;;;;1.75;1.4;;;;;;;-0.01;86.12109;92154.77;;;;
2020/12/29 00:56:33;;;;;;;1.75;1.4;;;;;;;-0.01;86.12109;92154.77;;;;
2020/12/29 00:57:33;;;;;;;1.75;1.4;;;;;;;-0.01;86.12109;92154.77;;;;
2020/12/29 00:58:34;;;;;;;1.75;1.4;;;;;;;-0.01;86.12109;92154.77;;;;
2020/12/29 00:59:35;;;;;;;1.75;1.4;;;;;;;-0.01;86.12109;92154.77;;;;
2020/12/29 01:00:35;;;;;;;1.75;1.4;;;;;;;-0.01;86.12109;92154.77;;;;
2020/12/29 01:01:36;;;;;;;1.75;1.4;;;;;;;-0.01;86.12109;92154.77;;;;
2020/12/29 01:02:36;;;;;;;1.75;1.4;;;;;;;-0.01;86.12109;92154.77;;;;
2020/12/29 01:03:37;;;;;;;1.75;1.4;;;;;;;-0.01;86.12109;92154.77;;;;
2020/12/29 01:04:38;;;;;;;1.75;1.4;;;;;;;-0.01;86.12109;92154.77;;;;
2020/12/29 01:05:39;;;;;;;3.6;1.8;;;;;;;-0.01;86.04785;92142.44;;;;
2020/12/29 01:06:39;;;;;;;3.6;1.8;;;;;;;-0.01;86.04785;92142.44;;;;
2020/12/29 01:07:39;;;;;;;3.6;1.8;;;;;;;-0.01;86.04785;92142.44;;;;
2020/12/29 01:08:40;;;;;;;3.6;1.8;;;;;;;-0.01;86.04785;92142.44;;;;
2020/12/29 01:09:40;;;;;;;3.6;1.8;;;;;;;-0.01;86.04785;92142.44;;;;
2020/12/29 01:10:43;;;;;;;3.6;1.8;;;;;;;-0.01;86.04785;92142.44;;;;
2020/12/29 01:11:43;;;;;;;3.6;1.8;;;;;;;-0.01;86.04785;92142.44;;;;
2020/12/29 01:12:44;;;;;;;3.6;1.8;;;;;;;-0.01;86.04785;92142.44;;;;
2020/12/29 01:13:45;;;;;;;3.6;1.8;;;;;;;-0.01;86.04785;92142.44;;;;
2020/12/29 01:14:45;;;;;;;3.6;1.8;;;;;;;-0.01;86.04785;92142.44;;;;
2020/12/29 01:15:46;;;;;;;1.6;1.1;;;;;;;-0.01;86.0791;92130.1;;;;
2020/12/29 01:16:49;;;;;;;1.6;1.1;;;;;;;-0.01;86.0791;92130.1;;;;
2020/12/29 01:17:50;;;;;;;1.6;1.1;;;;;;;-0.01;86.0791;92130.1;;;;
2020/12/29 01:18:50;;;;;;;1.6;1.1;;;;;;;-0.01;86.0791;92130.1;;;;
2020/12/29 01:19:50;;;;;;;1.6;1.1;;;;;;;-0.01;86.0791;92130.1;;;;
2020/12/29 01:20:51;;;;;;;1.6;1.1;;;;;;;-0.01;86.0791;92130.1;;;;
2020/12/29 01:21:51;;;;;;;1.6;1.1;;;;;;;-0.01;86.0791;92130.1;;;;
2020/12/29 01:22:52;;;;;;;1.6;1.1;;;;;;;-0.01;86.0791;92130.1;;;;
2020/12/29 01:23:53;;;;;;;1.6;1.1;;;;;;;-0.01;86.0791;92130.1;;;;
2020/12/29 01:24:54;;;;;;;1.6;1.1;;;;;;;-0.01;86.0791;92130.1;;;;
2020/12/29 01:25:54;;;;;;;1.6;1.1;;;;;;;-0.01;86.0791;92130.1;;;;
2020/12/29 01:26:55;;;;;;;1.6;1.2;;;;;;;-0.04;86.01074;92136.69;;;;
2020/12/29 01:27:56;;;;;;;1.6;1.2;;;;;;;-0.04;86.01074;92136.69;;;;
2020/12/29 01:28:57;;;;;;;1.6;1.2;;;;;;;-0.04;86.01074;92136.69;;;;
2020/12/29 01:29:57;;;;;;;1.6;1.2;;;;;;;-0.04;86.01074;92136.69;;;;
2020/12/29 01:30:57;;;;;;;1.6;1.2;;;;;;;-0.04;86.01074;92136.69;;;;
2020/12/29 01:31:58;;;;;;;1.6;1.2;;;;;;;-0.04;86.01074;92136.69;;;;
2020/12/29 01:32:59;;;;;;;1.6;1.2;;;;;;;-0.04;86.01074;92136.69;;;;
2020/12/29 01:33:59;;;;;;;1.6;1.2;;;;;;;-0.04;86.01074;92136.69;;;;
2020/12/29 01:35:00;;;;;;;1.6;1.2;;;;;;;-0.04;86.01074;92136.69;;;;
2020/12/29 01:36:01;;;;;;;1.6;1.2;;;;;;;-0.04;86.01074;92136.69;;;;
2020/12/29 01:37:01;;;;;;;2.9;1.5;;;;;;;-0.07;85.93066;92156.67;;;;
2020/12/29 01:38:03;;;;;;;2.9;1.5;;;;;;;-0.07;85.93066;92156.67;;;;
2020/12/29 01:39:04;;;;;;;2.9;1.5;;;;;;;-0.07;85.93066;92156.67;;;;
2020/12/29 01:40:04;;;;;;;2.9;1.5;;;;;;;-0.07;85.93066;92156.67;;;;
2020/12/29 01:41:05;;;;;;;2.9;1.5;;;;;;;-0.07;85.93066;92156.67;;;;
2020/12/29 01:42:05;;;;;;;2.9;1.5;;;;;;;-0.07;85.93066;92156.67;;;;
2020/12/29 01:43:10;;;;;;;2.9;1.5;;;;;;;-0.07;85.93066;92156.67;;;;
2020/12/29 01:44:11;;;;;;;2.9;1.5;;;;;;;-0.07;85.93066;92156.67;;;;
2020/12/29 01:45:13;;;;;;;2.9;1.5;;;;;;;-0.07;85.93066;92156.67;;;;
2020/12/29 01:46:16;;;;;;;2.9;1.5;;;;;;;-0.07;85.93066;92156.67;;;;
2020/12/29 01:47:17;;;;;;;2.9;1.5;;;;;;;-0.07;85.93066;92156.67;;;;
2020/12/29 01:48:18;;;;;;;1.9;1.4;;;;;;;-0.12;85.80664;92167.74;;;;
2020/12/29 01:49:18;;;;;;;1.9;1.4;;;;;;;-0.12;85.80664;92167.74;;;;
2020/12/29 01:50:19;;;;;;;1.9;1.4;;;;;;;-0.12;85.80664;92167.74;;;;
2020/12/29 01:51:22;;;;;;;1.9;1.4;;;;;;;-0.12;85.80664;92167.74;;;;
2020/12/29 01:52:22;;;;;;;1.9;1.4;;;;;;;-0.12;85.80664;92167.74;;;;
2020/12/29 01:53:23;;;;;;;1.9;1.4;;;;;;;-0.12;85.80664;92167.74;;;;
2020/12/29 01:54:23;;;;;;;1.9;1.4;;;;;;;-0.12;85.80664;92167.74;;;;
2020/12/29 01:55:25;;;;;;;1.9;1.4;;;;;;;-0.12;85.80664;92167.74;;;;
2020/12/29 01:56:27;;;;;;;1.9;1.4;;;;;;;-0.12;85.80664;92167.74;;;;
2020/12/29 01:57:32;;;;;;;1.9;1.4;;;;;;;-0.12;85.80664;92167.74;;;;
2020/12/29 01:58:33;;;;;;;2;1.6;;;;;;;-0.22;85.76758;92163.14;;;;
2020/12/29 01:59:35;;;;;;;2;1.6;;;;;;;-0.22;85.76758;92163.14;;;;
2020/12/29 02:00:36;;;;;;;2;1.6;;;;;;;-0.22;85.76758;92163.14;;;;
2020/12/29 02:01:37;;;;;;;2;1.6;;;;;;;-0.22;85.76758;92163.14;;;;
2020/12/29 02:02:38;;;;;;;2;1.6;;;;;;;-0.22;85.76758;92163.14;;;;
2020/12/29 02:03:40;;;;;;;2;1.6;;;;;;;-0.22;85.76758;92163.14;;;;
2020/12/29 02:04:41;;;;;;;2;1.6;;;;;;;-0.22;85.76758;92163.14;;;;
2020/12/29 02:05:42;;;;;;;2;1.6;;;;;;;-0.22;85.76758;92163.14;;;;
2020/12/29 02:06:46;;;;;;;2;1.6;;;;;;;-0.22;85.76758;92163.14;;;;
2020/12/29 02:07:49;;;;;;;2;1.6;;;;;;;-0.22;85.76758;92163.14;;;;
2020/12/29 02:08:49;;;;;;;5.499999;2.05;;;;;;;-0.21;86.08105;92179.72;;;;
2020/12/29 02:09:50;;;;;;;5.499999;2.05;;;;;;;-0.21;86.08105;92179.72;;;;
2020/12/29 02:10:51;;;;;;;5.499999;2.05;;;;;;;-0.21;86.08105;92179.72;;;;
2020/12/29 02:11:52;;;;;;;5.499999;2.05;;;;;;;-0.21;86.08105;92179.72;;;;
2020/12/29 02:12:53;;;;;;;5.499999;2.05;;;;;;;-0.21;86.08105;92179.72;;;;
2020/12/29 02:13:55;;;;;;;5.499999;2.05;;;;;;;-0.21;86.08105;92179.72;;;;
2020/12/29 02:14:56;;;;;;;5.499999;2.05;;;;;;;-0.21;86.08105;92179.72;;;;
2020/12/29 02:15:57;;;;;;;5.499999;2.05;;;;;;;-0.21;86.08105;92179.72;;;;
2020/12/29 02:16:58;;;;;;;5.499999;2.05;;;;;;;-0.21;86.08105;92179.72;;;;
2020/12/29 02:17:58;;;;;;;5.499999;2.05;;;;;;;-0.21;86.08105;92179.72;;;;
2020/12/29 02:18:59;;;;;;;5.499999;2.05;;;;;;;-0.21;86.08105;92179.72;;;;
2020/12/29 02:19:59;;;;;;;4.6;3;;;;;;;-0.1;86.40332;92209.8;;;;
2020/12/29 02:21:00;;;;;;;4.6;3;;;;;;;-0.1;86.40332;92209.8;;;;
2020/12/29 02:22:01;;;;;;;4.6;3;;;;;;;-0.1;86.40332;92209.8;;;;
2020/12/29 02:23:01;;;;;;;4.6;3;;;;;;;-0.1;86.40332;92209.8;;;;
2020/12/29 02:24:02;;;;;;;4.6;3;;;;;;;-0.1;86.40332;92209.8;;;;
2020/12/29 02:25:03;;;;;;;4.6;3;;;;;;;-0.1;86.40332;92209.8;;;;
2020/12/29 02:26:07;;;;;;;4.6;3;;;;;;;-0.1;86.40332;92209.8;;;;
2020/12/29 02:27:07;;;;;;;4.6;3;;;;;;;-0.1;86.40332;92209.8;;;;
2020/12/29 02:28:08;;;;;;;4.6;3;;;;;;;-0.1;86.40332;92209.8;;;;
2020/12/29 02:29:08;;;;;;;4.6;3;;;;;;;-0.1;86.40332;92209.8;;;;
2020/12/29 02:30:09;;;;;;;2.2;1.3;;;;;;;-0.02;86.49316;92199.55;;;;
2020/12/29 02:31:10;;;;;;;2.2;1.3;;;;;;;-0.02;86.49316;92199.55;;;;
2020/12/29 02:32:10;;;;;;;2.2;1.3;;;;;;;-0.02;86.49316;92199.55;;;;
2020/12/29 02:33:11;;;;;;;2.2;1.3;;;;;;;-0.02;86.49316;92199.55;;;;
2020/12/29 02:34:12;;;;;;;2.2;1.3;;;;;;;-0.02;86.49316;92199.55;;;;
2020/12/29 02:35:15;;;;;;;2.2;1.3;;;;;;;-0.02;86.49316;92199.55;;;;
2020/12/29 02:36:15;;;;;;;2.2;1.3;;;;;;;-0.02;86.49316;92199.55;;;;
2020/12/29 02:37:16;;;;;;;2.2;1.3;;;;;;;-0.02;86.49316;92199.55;;;;
2020/12/29 02:38:17;;;;;;;2.2;1.3;;;;;;;-0.02;86.49316;92199.55;;;;
2020/12/29 02:39:20;;;;;;;2.2;1.3;;;;;;;-0.02;86.49316;92199.55;;;;
2020/12/29 02:40:21;;;;;;;2.2;1.3;;;;;;;-0.02;86.49316;92199.55;;;;
2020/12/29 02:41:21;;;;;;;2.8;1.3;;;;;;;-0.08;86.26172;92207.7;;;;
2020/12/29 02:42:22;;;;;;;2.8;1.3;;;;;;;-0.08;86.26172;92207.7;;;;
2020/12/29 02:43:22;;;;;;;2.8;1.3;;;;;;;-0.08;86.26172;92207.7;;;;
2020/12/29 02:44:23;;;;;;;2.8;1.3;;;;;;;-0.08;86.26172;92207.7;;;;
2020/12/29 02:45:23;;;;;;;2.8;1.3;;;;;;;-0.08;86.26172;92207.7;;;;
2020/12/29 02:46:24;;;;;;;2.8;1.3;;;;;;;-0.08;86.26172;92207.7;;;;
2020/12/29 02:47:24;;;;;;;2.8;1.3;;;;;;;-0.08;86.26172;92207.7;;;;
2020/12/29 02:48:25;;;;;;;2.8;1.3;;;;;;;-0.08;86.26172;92207.7;;;;
2020/12/29 02:49:25;;;;;;;2.8;1.3;;;;;;;-0.08;86.26172;92207.7;;;;
2020/12/29 02:50:31;;;;;;;2.8;1.3;;;;;;;-0.08;86.26172;92207.7;;;;
2020/12/29 02:51:31;;;;;;;2.8;1.3;;;;;;;-0.08;86.26172;92207.7;;;;
2020/12/29 02:52:32;;;;;;;1.7;1.1;;;;;;;-0.02;86.4707;92279.66;;;;
2020/12/29 02:53:32;;;;;;;1.7;1.1;;;;;;;-0.02;86.4707;92279.66;;;;
2020/12/29 02:54:33;;;;;;;1.7;1.1;;;;;;;-0.02;86.4707;92279.66;;;;
2020/12/29 02:55:33;;;;;;;1.7;1.1;;;;;;;-0.02;86.4707;92279.66;;;;
2020/12/29 02:56:34;;;;;;;1.7;1.1;;;;;;;-0.02;86.4707;92279.66;;;;
2020/12/29 02:57:34;;;;;;;1.7;1.1;;;;;;;-0.02;86.4707;92279.66;;;;
2020/12/29 02:58:35;;;;;;;1.7;1.1;;;;;;;-0.02;86.4707;92279.66;;;;
2020/12/29 02:59:35;;;;;;;1.7;1.1;;;;;;;-0.02;86.4707;92279.66;;;;
2020/12/29 03:00:36;;;;;;;1.7;1.1;;;;;;;-0.02;86.4707;92279.66;;;;
2020/12/29 03:01:36;;;;;;;1.7;1.1;;;;;;;-0.02;86.4707;92279.66;;;;
2020/12/29 03:02:37;;;;;;;1.2;1;;;;;;;0.09;86.63965;92265.85;;;;
2020/12/29 03:03:37;;;;;;;1.2;1;;;;;;;0.09;86.63965;92265.85;;;;
2020/12/29 03:04:38;;;;;;;1.2;1;;;;;;;0.09;86.63965;92265.85;;;;
2020/12/29 03:05:38;;;;;;;1.2;1;;;;;;;0.09;86.63965;92265.85;;;;
2020/12/29 03:06:39;;;;;;;1.2;1;;;;;;;0.09;86.63965;92265.85;;;;
2020/12/29 03:07:39;;;;;;;1.2;1;;;;;;;0.09;86.63965;92265.85;;;;
2020/12/29 03:08:40;;;;;;;1.2;1;;;;;;;0.09;86.63965;92265.85;;;;
2020/12/29 03:09:40;;;;;;;1.2;1;;;;;;;0.09;86.63965;92265.85;;;;
2020/12/29 03:10:41;;;;;;;1.2;1;;;;;;;0.09;86.63965;92265.85;;;;
2020/12/29 03:11:42;;;;;;;1.2;1;;;;;;;0.09;86.63965;92265.85;;;;
2020/12/29 03:12:43;;;;;;;1.2;1;;;;;;;0.09;86.63965;92265.85;;;;
2020/12/29 03:13:44;;;;;;;1.45;1.15;;;;;;;0.26;86.50879;92268.85;;;;
2020/12/29 03:14:44;;;;;;;1.45;1.15;;;;;;;0.26;86.50879;92268.85;;;;
2020/12/29 03:15:45;;;;;;;1.45;1.15;;;;;;;0.26;86.50879;92268.85;;;;
2020/12/29 03:16:45;;;;;;;1.45;1.15;;;;;;;0.26;86.50879;92268.85;;;;
2020/12/29 03:17:46;;;;;;;1.45;1.15;;;;;;;0.26;86.50879;92268.85;;;;
2020/12/29 03:18:46;;;;;;;1.45;1.15;;;;;;;0.26;86.50879;92268.85;;;;
2020/12/29 03:19:47;;;;;;;1.45;1.15;;;;;;;0.26;86.50879;92268.85;;;;
2020/12/29 03:20:47;;;;;;;1.45;1.15;;;;;;;0.26;86.50879;92268.85;;;;
2020/12/29 03:21:48;;;;;;;1.45;1.15;;;;;;;0.26;86.50879;92268.85;;;;
2020/12/29 03:22:49;;;;;;;1.45;1.15;;;;;;;0.26;86.50879;92268.85;;;;
2020/12/29 03:23:49;;;;;;;1.2;1.1;;;;;;;0.41;86.35254;92273.39;;;;
2020/12/29 03:24:50;;;;;;;1.2;1.1;;;;;;;0.41;86.35254;92273.39;;;;
2020/12/29 03:25:51;;;;;;;1.2;1.1;;;;;;;0.41;86.35254;92273.39;;;;
2020/12/29 03:26:51;;;;;;;1.2;1.1;;;;;;;0.41;86.35254;92273.39;;;;
2020/12/29 03:27:52;;;;;;;1.2;1.1;;;;;;;0.41;86.35254;92273.39;;;;
2020/12/29 03:28:53;;;;;;;1.2;1.1;;;;;;;0.41;86.35254;92273.39;;;;
2020/12/29 03:29:53;;;;;;;1.2;1.1;;;;;;;0.41;86.35254;92273.39;;;;
2020/12/29 03:30:54;;;;;;;1.2;1.1;;;;;;;0.41;86.35254;92273.39;;;;
2020/12/29 03:31:54;;;;;;;1.2;1.1;;;;;;;0.41;86.35254;92273.39;;;;
2020/12/29 03:32:55;;;;;;;1.2;1.1;;;;;;;0.41;86.35254;92273.39;;;;
2020/12/29 03:33:55;;;;;;;1.2;1.1;;;;;;;0.41;86.35254;92273.39;;;;
2020/12/29 03:34:56;;;;;;;1.2;1.1;;;;;;;0.37;85.96777;92258.23;;;;
2020/12/29 03:35:57;;;;;;;1.2;1.1;;;;;;;0.37;85.96777;92258.23;;;;
2020/12/29 03:36:58;;;;;;;1.2;1.1;;;;;;;0.37;85.96777;92258.23;;;;
2020/12/29 03:37:58;;;;;;;1.2;1.1;;;;;;;0.37;85.96777;92258.23;;;;
2020/12/29 03:38:59;;;;;;;1.2;1.1;;;;;;;0.37;85.96777;92258.23;;;;
2020/12/29 03:39:59;;;;;;;1.2;1.1;;;;;;;0.37;85.96777;92258.23;;;;
2020/12/29 03:41:00;;;;;;;1.2;1.1;;;;;;;0.37;85.96777;92258.23;;;;
2020/12/29 03:42:01;;;;;;;1.2;1.1;;;;;;;0.37;85.96777;92258.23;;;;
2020/12/29 03:43:02;;;;;;;1.2;1.1;;;;;;;0.37;85.96777;92258.23;;;;
2020/12/29 03:44:02;;;;;;;1.2;1.1;;;;;;;0.37;85.96777;92258.23;;;;
2020/12/29 03:45:03;;;;;;;1.1;1;;;;;;;0.12;85.625;92269.47;;;;
2020/12/29 03:46:03;;;;;;;1.1;1;;;;;;;0.12;85.625;92269.47;;;;
2020/12/29 03:47:04;;;;;;;1.1;1;;;;;;;0.12;85.625;92269.47;;;;
2020/12/29 03:48:04;;;;;;;1.1;1;;;;;;;0.12;85.625;92269.47;;;;
2020/12/29 03:49:05;;;;;;;1.1;1;;;;;;;0.12;85.625;92269.47;;;;
2020/12/29 03:50:06;;;;;;;1.1;1;;;;;;;0.12;85.625;92269.47;;;;
2020/12/29 03:51:06;;;;;;;1.1;1;;;;;;;0.12;85.625;92269.47;;;;
2020/12/29 03:52:07;;;;;;;1.1;1;;;;;;;0.12;85.625;92269.47;;;;
2020/12/29 03:53:07;;;;;;;1.1;1;;;;;;;0.12;85.625;92269.47;;;;
2020/12/29 03:54:08;;;;;;;1.1;1;;;;;;;0.12;85.625;92269.47;;;;
2020/12/29 03:55:09;;;;;;;1.1;1;;;;;;;0.12;85.625;92269.47;;;;
2020/12/29 03:56:09;;;;;;;1.1;1;;;;;;;-0.23;85.65918;92282.14;;;;
2020/12/29 03:57:09;;;;;;;1.1;1;;;;;;;-0.23;85.65918;92282.14;;;;
2020/12/29 03:58:10;;;;;;;1.1;1;;;;;;;-0.23;85.65918;92282.14;;;;
2020/12/29 03:59:10;;;;;;;1.1;1;;;;;;;-0.23;85.65918;92282.14;;;;
2020/12/29 04:00:11;;;;;;;1.1;1;;;;;;;-0.23;85.65918;92282.14;;;;
2020/12/29 04:01:11;;;;;;;1.1;1;;;;;;;-0.23;85.65918;92282.14;;;;
2020/12/29 04:02:12;;;;;;;1.1;1;;;;;;;-0.23;85.65918;92282.14;;;;
2020/12/29 04:03:13;;;;;;;1.1;1;;;;;;;-0.23;85.65918;92282.14;;;;
2020/12/29 04:04:13;;;;;;;1.1;1;;;;;;;-0.23;85.65918;92282.14;;;;
2020/12/29 04:05:13;;;;;;;1.1;1;;;;;;;-0.23;85.65918;92282.14;;;;
2020/12/29 04:06:15;;;;;;;1.1;1;;;;;;;-0.23;85.65918;92282.14;;;;
2020/12/29 04:07:15;;;;;;;1.2;1.1;;;;;;;-0.5;85.89746;92307.7;;;;
2020/12/29 04:08:16;;;;;;;1.2;1.1;;;;;;;-0.5;85.89746;92307.7;;;;
2020/12/29 04:09:16;;;;;;;1.2;1.1;;;;;;;-0.5;85.89746;92307.7;;;;
2020/12/29 04:10:17;;;;;;;1.2;1.1;;;;;;;-0.5;85.89746;92307.7;;;;
2020/12/29 04:11:18;;;;;;;1.2;1.1;;;;;;;-0.5;85.89746;92307.7;;;;
2020/12/29 04:12:18;;;;;;;1.2;1.1;;;;;;;-0.5;85.89746;92307.7;;;;
2020/12/29 04:13:19;;;;;;;1.2;1.1;;;;;;;-0.5;85.89746;92307.7;;;;
2020/12/29 04:14:19;;;;;;;1.2;1.1;;;;;;;-0.5;85.89746;92307.7;;;;
2020/12/29 04:15:20;;;;;;;1.2;1.1;;;;;;;-0.5;85.89746;92307.7;;;;
2020/12/29 04:16:21;;;;;;;1.2;1.1;;;;;;;-0.5;85.89746;92307.7;;;;
2020/12/29 04:17:22;;;;;;;1.3;1.2;;;;;;;-0.63;86.22363;92321.67;;;;
2020/12/29 04:18:22;;;;;;;1.3;1.2;;;;;;;-0.63;86.22363;92321.67;;;;
2020/12/29 04:19:23;;;;;;;1.3;1.2;;;;;;;-0.63;86.22363;92321.67;;;;
2020/12/29 04:20:23;;;;;;;1.3;1.2;;;;;;;-0.63;86.22363;92321.67;;;;
2020/12/29 04:21:24;;;;;;;1.3;1.2;;;;;;;-0.63;86.22363;92321.67;;;;
2020/12/29 04:22:24;;;;;;;1.3;1.2;;;;;;;-0.63;86.22363;92321.67;;;;
2020/12/29 04:23:25;;;;;;;1.3;1.2;;;;;;;-0.63;86.22363;92321.67;;;;
2020/12/29 04:24:25;;;;;;;1.3;1.2;;;;;;;-0.63;86.22363;92321.67;;;;
2020/12/29 04:25:26;;;;;;;1.3;1.2;;;;;;;-0.63;86.22363;92321.67;;;;
2020/12/29 04:26:26;;;;;;;1.3;1.2;;;;;;;-0.63;86.22363;92321.67;;;;
2020/12/29 04:27:27;;;;;;;1.3;1.2;;;;;;;-0.63;86.22363;92321.67;;;;
2020/12/29 04:28:27;;;;;;;1.5;1.25;;;;;;;-0.65;86.37598;92330;;;;
2020/12/29 04:29:28;;;;;;;1.5;1.25;;;;;;;-0.65;86.37598;92330;;;;
2020/12/29 04:30:28;;;;;;;1.5;1.25;;;;;;;-0.65;86.37598;92330;;;;
2020/12/29 04:31:29;;;;;;;1.5;1.25;;;;;;;-0.65;86.37598;92330;;;;
2020/12/29 04:32:29;;;;;;;1.5;1.25;;;;;;;-0.65;86.37598;92330;;;;
2020/12/29 04:33:30;;;;;;;1.5;1.25;;;;;;;-0.65;86.37598;92330;;;;
2020/12/29 04:34:30;;;;;;;1.5;1.25;;;;;;;-0.65;86.37598;92330;;;;
2020/12/29 04:35:31;;;;;;;1.5;1.25;;;;;;;-0.65;86.37598;92330;;;;
2020/12/29 04:36:31;;;;;;;1.5;1.25;;;;;;;-0.65;86.37598;92330;;;;
2020/12/29 04:37:32;;;;;;;1.5;1.25;;;;;;;-0.65;86.37598;92330;;;;
2020/12/29 04:38:32;;;;;;;2.8;1.3;;;;;;;-0.7;86.47852;92349.77;;;;
2020/12/29 04:39:33;;;;;;;2.8;1.3;;;;;;;-0.7;86.47852;92349.77;;;;
2020/12/29 04:40:34;;;;;;;2.8;1.3;;;;;;;-0.7;86.47852;92349.77;;;;
2020/12/29 04:41:34;;;;;;;2.8;1.3;;;;;;;-0.7;86.47852;92349.77;;;;
2020/12/29 04:42:35;;;;;;;2.8;1.3;;;;;;;-0.7;86.47852;92349.77;;;;
2020/12/29 04:43:36;;;;;;;2.8;1.3;;;;;;;-0.7;86.47852;92349.77;;;;
2020/12/29 04:44:37;;;;;;;2.8;1.3;;;;;;;-0.7;86.47852;92349.77;;;;
2020/12/29 04:45:38;;;;;;;2.8;1.3;;;;;;;-0.7;86.47852;92349.77;;;;
2020/12/29 04:46:39;;;;;;;2.8;1.3;;;;;;;-0.7;86.47852;92349.77;;;;
2020/12/29 04:47:39;;;;;;;2.8;1.3;;;;;;;-0.7;86.47852;92349.77;;;;
2020/12/29 04:48:40;;;;;;;2.8;1.3;;;;;;;-0.7;86.47852;92349.77;;;;
2020/12/29 04:49:41;;;;;;;1.9;1.4;;;;;;;-0.72;86.69434;92395.04;;;;
2020/12/29 04:50:43;;;;;;;1.9;1.4;;;;;;;-0.72;86.69434;92395.04;;;;
2020/12/29 04:51:49;;;;;;;1.9;1.4;;;;;;;-0.72;86.69434;92395.04;;;;
2020/12/29 04:52:50;;;;;;;1.9;1.4;;;;;;;-0.72;86.69434;92395.04;;;;
2020/12/29 04:53:56;;;;;;;1.9;1.4;;;;;;;-0.72;86.69434;92395.04;;;;
2020/12/29 04:54:58;;;;;;;1.9;1.4;;;;;;;-0.72;86.69434;92395.04;;;;
2020/12/29 04:56:00;;;;;;;1.9;1.4;;;;;;;-0.72;86.69434;92395.04;;;;
2020/12/29 04:57:04;;;;;;;1.9;1.4;;;;;;;-0.72;86.69434;92395.04;;;;
2020/12/29 04:58:06;;;;;;;1.9;1.4;;;;;;;-0.72;86.69434;92395.04;;;;
2020/12/29 04:59:06;;;;;;;1.9;1.4;;;;;;;-0.72;86.69434;92395.04;;;;
2020/12/29 05:00:06;;;;;;;1.4;1.2;;;;;;;-0.76;86.77051;92397.5;;;;
2020/12/29 05:01:07;;;;;;;1.4;1.2;;;;;;;-0.76;86.77051;92397.5;;;;
2020/12/29 05:02:09;;;;;;;1.4;1.2;;;;;;;-0.76;86.77051;92397.5;;;;
2020/12/29 05:03:10;;;;;;;1.4;1.2;;;;;;;-0.76;86.77051;92397.5;;;;
2020/12/29 05:04:10;;;;;;;1.4;1.2;;;;;;;-0.76;86.77051;92397.5;;;;
2020/12/29 05:05:11;;;;;;;1.4;1.2;;;;;;;-0.76;86.77051;92397.5;;;;
2020/12/29 05:06:11;;;;;;;1.4;1.2;;;;;;;-0.76;86.77051;92397.5;;;;
2020/12/29 05:07:12;;;;;;;1.4;1.2;;;;;;;-0.76;86.77051;92397.5;;;;
2020/12/29 05:08:13;;;;;;;1.4;1.2;;;;;;;-0.76;86.77051;92397.5;;;;
2020/12/29 05:09:13;;;;;;;1.4;1.2;;;;;;;-0.76;86.77051;92397.5;;;;
2020/12/29 05:10:16;;;;;;;1.4;1.2;;;;;;;-0.76;86.77051;92397.5;;;;
2020/12/29 05:11:17;;;;;;;2.85;1.4;;;;;;;-0.73;87.0752;92401.5;;;;
2020/12/29 05:12:18;;;;;;;2.85;1.4;;;;;;;-0.73;87.0752;92401.5;;;;
2020/12/29 05:13:19;;;;;;;2.85;1.4;;;;;;;-0.73;87.0752;92401.5;;;;
2020/12/29 05:14:20;;;;;;;2.85;1.4;;;;;;;-0.73;87.0752;92401.5;;;;
2020/12/29 05:15:22;;;;;;;2.85;1.4;;;;;;;-0.73;87.0752;92401.5;;;;
2020/12/29 05:16:22;;;;;;;2.85;1.4;;;;;;;-0.73;87.0752;92401.5;;;;
2020/12/29 05:17:23;;;;;;;2.85;1.4;;;;;;;-0.73;87.0752;92401.5;;;;
2020/12/29 05:18:24;;;;;;;2.85;1.4;;;;;;;-0.73;87.0752;92401.5;;;;
2020/12/29 05:19:25;;;;;;;2.85;1.4;;;;;;;-0.73;87.0752;92401.5;;;;
2020/12/29 05:20:33;;;;;;;2.85;1.4;;;;;;;-0.73;87.0752;92401.5;;;;
2020/12/29 05:21:39;;;;;;;1.45;1.1;;;;;;;-0.66;87.05762;92437.91;;;;
2020/12/29 05:22:40;;;;;;;1.45;1.1;;;;;;;-0.66;87.05762;92437.91;;;;
2020/12/29 05:23:41;;;;;;;1.45;1.1;;;;;;;-0.66;87.05762;92437.91;;;;
2020/12/29 05:24:41;;;;;;;1.45;1.1;;;;;;;-0.66;87.05762;92437.91;;;;
2020/12/29 05:25:45;;;;;;;1.45;1.1;;;;;;;-0.66;87.05762;92437.91;;;;
2020/12/29 05:26:46;;;;;;;1.45;1.1;;;;;;;-0.66;87.05762;92437.91;;;;
2020/12/29 05:27:50;;;;;;;1.45;1.1;;;;;;;-0.66;87.05762;92437.91;;;;
2020/12/29 05:28:50;;;;;;;1.45;1.1;;;;;;;-0.66;87.05762;92437.91;;;;
2020/12/29 05:29:51;;;;;;;1.45;1.1;;;;;;;-0.66;87.05762;92437.91;;;;
2020/12/29 05:30:51;;;;;;;1.45;1.1;;;;;;;-0.66;87.05762;92437.91;;;;
2020/12/29 05:31:53;;;;;;;1.4;1.2;;;;;;;-0.63;86.92969;92440.52;;;;
2020/12/29 05:32:54;;;;;;;1.4;1.2;;;;;;;-0.63;86.92969;92440.52;;;;
2020/12/29 05:33:54;;;;;;;1.4;1.2;;;;;;;-0.63;86.92969;92440.52;;;;
2020/12/29 05:34:55;;;;;;;1.4;1.2;;;;;;;-0.63;86.92969;92440.52;;;;
2020/12/29 05:35:57;;;;;;;1.4;1.2;;;;;;;-0.63;86.92969;92440.52;;;;
2020/12/29 05:36:59;;;;;;;1.4;1.2;;;;;;;-0.63;86.92969;92440.52;;;;
2020/12/29 05:38:00;;;;;;;1.4;1.2;;;;;;;-0.63;86.92969;92440.52;;;;
2020/12/29 05:39:01;;;;;;;1.4;1.2;;;;;;;-0.63;86.92969;92440.52;;;;
2020/12/29 05:40:06;;;;;;;1.4;1.2;;;;;;;-0.63;86.92969;92440.52;;;;
2020/12/29 05:41:23;;;;;;;1.4;1.2;;;;;;;-0.63;86.92969;92440.52;;;;
2020/12/29 05:42:24;;;;;;;1.4;1.2;;;;;;;-0.63;86.92969;92440.52;;;;
2020/12/29 05:43:25;;;;;;;1.25;1.15;;;;;;;-0.57;87.66895;92458.49;;;;
2020/12/29 05:44:28;;;;;;;1.25;1.15;;;;;;;-0.57;87.66895;92458.49;;;;
2020/12/29 05:45:31;;;;;;;1.25;1.15;;;;;;;-0.57;87.66895;92458.49;;;;
2020/12/29 05:46:33;;;;;;;1.25;1.15;;;;;;;-0.57;87.66895;92458.49;;;;
2020/12/29 05:47:35;;;;;;;1.25;1.15;;;;;;;-0.57;87.66895;92458.49;;;;
2020/12/29 05:48:35;;;;;;;1.25;1.15;;;;;;;-0.57;87.66895;92458.49;;;;
2020/12/29 05:49:37;;;;;;;1.25;1.15;;;;;;;-0.57;87.66895;92458.49;;;;
2020/12/29 05:50:37;;;;;;;1.25;1.15;;;;;;;-0.57;87.66895;92458.49;;;;
2020/12/29 05:51:37;;;;;;;1.25;1.15;;;;;;;-0.57;87.66895;92458.49;;;;
2020/12/29 05:52:42;;;;;;;1.25;1.15;;;;;;;-0.57;87.66895;92458.49;;;;
2020/12/29 05:53:43;;;;;;;1.5;1.05;;;;;;;-0.48;87.97852;92475.72;;;;
2020/12/29 05:54:44;;;;;;;1.5;1.05;;;;;;;-0.48;87.97852;92475.72;;;;
2020/12/29 05:55:48;;;;;;;1.5;1.05;;;;;;;-0.48;87.97852;92475.72;;;;
2020/12/29 05:56:48;;;;;;;1.5;1.05;;;;;;;-0.48;87.97852;92475.72;;;;